< < Back
Terminal Aerodrome Forecast


Current Version              Previous Versions:   1  2  3  4  5  6  7  8  9  

Terminal Aerodrome Forecast

931
FTUS42 KFFC 211700
TAFFTY
TAF
KFTY 211720Z 2118/2218 32009G14KT P6SM FEW040
     FM220000 33003KT P6SM SKC
     FM221500 35007KT P6SM SKC=



Latest METAR

230
SAUS70 KWBC 220600 RRF
MTRFTY
METAR KFTY 220553Z 36004KT 10SM CLR 12/ A3002 RMK AO2 SLP161 T0122 10161
20106 58002 $


USA.gov is the U.S. government's official web portal to all federal, state and local government web resources and services.